Time;durP1;ratioP1;P1;durP2;ratioP2;P2;SDS_P1;SDS_P2;PMS_P1;PMS_P2;Temp;Humidity;BMP_temperature;BMP_pressure;BME280_temperature;BME280_humidity;BME280_pressure;Samples;Min_cycle;Max_cycle;Signal;HPM_P1;HPM_P2
2022/01/21 03:49:05;;;;;;;;;;;;;;;-1.49;100.00;100590.91;4965710;28;19922;-83
2022/01/21 03:51:30;;;;;;;;;;;;;;;-1.49;100.00;100607.22;4951749;29;19922;-83
2022/01/21 03:53:56;;;;;;;;;;;;;;;-1.47;100.00;100604.16;4936189;29;20397;-83
2022/01/21 03:56:25;;;;;;;;;;;;;;;-1.46;100.00;100605.75;4967668;28;19964;-83
2022/01/21 03:58:54;;;;;;;;;;;;;;;-1.49;100.00;100598.25;4940645;28;19965;-83
2022/01/21 04:01:21;;;;;;;;;;;;;;;-1.48;100.00;100603.38;4953451;28;19966;-83
2022/01/21 04:03:47;;;;;;;;;;;;;;;-1.49;100.00;100606.41;4954321;28;19945;-83
2022/01/21 04:06:12;;;;;;;;;;;;;;;-1.50;100.00;100599.41;4954376;28;20338;-83
2022/01/21 04:08:38;;;;;;;;;;;;;;;-1.48;100.00;100597.94;4954399;28;19980;-84
2022/01/21 04:11:04;;;;;;;;;;;;;;;-1.48;100.00;100597.13;4954625;28;19954;-83
2022/01/21 04:13:31;;;;;;;;;;;;;;;-1.46;100.00;100595.66;4954530;28;19922;-83
2022/01/21 04:15:59;;;;;;;;;;;;;;;-1.46;100.00;100603.03;4954907;28;19918;-83
2022/01/21 04:18:26;;;;;;;;;;;;;;;-1.49;100.00;100601.78;4938847;28;19965;-83
2022/01/21 04:20:54;;;;;;;;;;;;;;;-1.48;100.00;100603.38;4939608;28;19918;-83
2022/01/21 04:23:22;;;;;;;;;;;;;;;-1.50;100.00;100613.03;4953592;28;19918;-83
2022/01/21 04:25:48;;;;;;;;;;;;;;;-1.52;100.00;100620.72;4945750;28;19925;-83
2022/01/21 04:28:13;;;;;;;;;;;;;;;-1.52;100.00;100623.44;4953729;28;19926;-83
2022/01/21 04:30:40;;;;;;;;;;;;;;;-1.52;100.00;100613.34;4954220;28;19925;-83
2022/01/21 04:33:05;;;;;;;;;;;;;;;-1.52;100.00;100629.69;4954934;28;20417;-83
2022/01/21 04:35:31;;;;;;;;;;;;;;;-1.51;100.00;100634.00;4953881;28;19922;-83
2022/01/21 04:38:01;;;;;;;;;;;;;;;-1.53;100.00;100635.44;4935565;28;19919;-83
2022/01/21 04:40:30;;;;;;;;;;;;;;;-1.56;100.00;100617.09;4940099;28;19925;-83
2022/01/21 04:48:33;;;;;;;;;;;;;;;-1.58;100.00;100635.69;4936626;29;20268;-84
2022/01/21 04:51:12;;;;;;;;;;;;;;;-1.57;99.42;100642.69;4952800;29;19946;-83
2022/01/21 04:53:37;;;;;;;;;;;;;;;-1.61;100.00;100658.13;4951552;29;19922;-83
2022/01/21 04:56:11;;;;;;;;;;;;;;;-1.60;99.50;100651.56;4945285;29;20400;-83
2022/01/21 04:58:36;;;;;;;;;;;;;;;-1.60;99.09;100662.44;4944660;29;19923;-83
2022/01/21 05:01:04;;;;;;;;;;;;;;;-1.57;98.80;100667.19;4950921;28;19965;-83
2022/01/21 05:03:30;;;;;;;;;;;;;;;-1.59;98.25;100672.19;4956184;29;20386;-83
2022/01/21 05:05:55;;;;;;;;;;;;;;;-1.60;97.41;100676.84;4970969;28;19973;-83
2022/01/21 05:08:27;;;;;;;;;;;;;;;-1.62;96.15;100679.13;4956393;28;19918;-83
2022/01/21 05:10:53;;;;;;;;;;;;;;;-1.60;95.96;100676.03;4954907;29;19918;-83
2022/01/21 05:13:23;;;;;;;;;;;;;;;-1.58;96.12;100676.50;4955307;29;19922;-83
2022/01/21 05:16:08;;;;;;;;;;;;;;;-1.56;94.72;100663.34;4955314;29;19922;-83
2022/01/21 05:18:34;;;;;;;;;;;;;;;-1.55;95.24;100664.94;4954934;29;20444;-84
2022/01/21 05:21:20;;;;;;;;;;;;;;;-1.53;95.67;100682.50;4941048;29;19926;-83
2022/01/21 05:24:03;;;;;;;;;;;;;;;-1.56;95.53;100680.47;4953189;28;19918;-83
2022/01/21 05:26:36;;;;;;;;;;;;;;;-1.58;94.69;100696.34;4939014;29;19930;-84
2022/01/21 05:29:09;;;;;;;;;;;;;;;-1.59;95.37;100691.22;4954364;29;19924;-83
2022/01/21 05:31:53;;;;;;;;;;;;;;;-1.61;93.61;100679.88;4955119;29;20008;-83
2022/01/21 05:34:27;;;;;;;;;;;;;;;-1.61;92.89;100686.13;4953208;29;20000;-83
2022/01/21 05:37:15;;;;;;;;;;;;;;;-1.59;90.09;100691.22;4954547;29;20031;-84
2022/01/21 05:39:59;;;;;;;;;;;;;;;-1.61;90.05;100679.88;4954783;28;20282;-84
2022/01/21 05:42:57;;;;;;;;;;;;;;;-1.66;91.30;100693.72;4947811;28;20390;-83
2022/01/21 05:48:38;;;;;;;;;;;;;;;-1.63;88.49;100720.25;4952155;28;19934;-84
2022/01/21 05:51:06;;;;;;;;;;;;;;;-1.60;87.55;100730.44;4951429;29;20291;-83
2022/01/21 05:53:45;;;;;;;;;;;;;;;-1.58;86.12;100736.34;4955367;28;20276;-84
2022/01/21 05:56:31;;;;;;;;;;;;;;;-1.57;85.65;100748.81;4951288;29;19989;-83
2022/01/21 05:59:05;;;;;;;;;;;;;;;-1.58;87.28;100747.25;4951689;28;20280;-84
2022/01/21 06:01:31;;;;;;;;;;;;;;;-1.67;86.65;100735.66;4951487;29;19919;-83
2022/01/21 06:03:56;;;;;;;;;;;;;;;-1.63;83.68;100729.22;4933584;29;19922;-83
2022/01/21 06:06:22;;;;;;;;;;;;;;;-1.67;86.20;100730.22;4949624;29;19918;-83
2022/01/21 06:08:47;;;;;;;;;;;;;;;-1.75;85.74;100745.50;4952283;28;19925;-83
2022/01/21 06:11:13;;;;;;;;;;;;;;;-1.77;85.50;100744.25;4951185;29;20310;-83
2022/01/21 06:13:38;;;;;;;;;;;;;;;-1.78;84.11;100737.22;4956736;28;20373;-83
2022/01/21 06:16:04;;;;;;;;;;;;;;;-1.76;83.83;100737.69;4958194;28;19919;-84
2022/01/21 06:18:30;;;;;;;;;;;;;;;-1.79;84.09;100728.28;4952844;28;20437;-83
2022/01/21 06:20:55;;;;;;;;;;;;;;;-1.74;83.86;100740.88;4963108;28;19922;-84
2022/01/21 06:23:20;;;;;;;;;;;;;;;-1.80;83.80;100744.91;4948584;29;20275;-83
2022/01/21 06:25:46;;;;;;;;;;;;;;;-1.82;82.75;100752.63;4961447;28;19962;-83
2022/01/21 06:28:11;;;;;;;;;;;;;;;-1.86;83.71;100768.03;4953122;29;19922;-83
2022/01/21 06:30:37;;;;;;;;;;;;;;;-1.88;83.13;100763.72;4952594;28;19929;-83
2022/01/21 06:33:02;;;;;;;;;;;;;;;-1.91;83.08;100769.03;4953137;29;19923;-83
2022/01/21 06:35:28;;;;;;;;;;;;;;;-1.98;82.63;100769.56;4951729;29;20013;-83
2022/01/21 06:37:53;;;;;;;;;;;;;;;-2.01;83.74;100753.94;4952121;29;20484;-83
2022/01/21 06:40:20;;;;;;;;;;;;;;;-2.02;83.30;100757.00;4950068;28;20390;-83
2022/01/21 06:42:46;;;;;;;;;;;;;;;-2.02;82.15;100779.53;4953019;29;19925;-82
2022/01/21 06:45:11;;;;;;;;;;;;;;;-2.01;81.90;100781.13;4952918;29;19918;-83
2022/01/21 06:47:37;;;;;;;;;;;;;;;-1.97;81.53;100798.34;4955899;28;20334;-82
2022/01/21 06:50:02;;;;;;;;;;;;;;;-1.97;81.80;100798.34;4944878;28;19918;-82
2022/01/21 06:52:28;;;;;;;;;;;;;;;-1.92;80.99;100817.19;4954359;28;20441;-82
2022/01/21 06:54:54;;;;;;;;;;;;;;;-1.93;79.80;100821.03;4947652;28;19957;-83
2022/01/21 06:57:19;;;;;;;;;;;;;;;-1.89;78.14;100837.47;4949441;29;19921;-83
2022/01/21 06:59:45;;;;;;;;;;;;;;;-1.81;77.13;100830.34;4949437;29;19918;-83
2022/01/21 07:02:10;;;;;;;;;;;;;;;-1.79;76.89;100830.81;4948697;29;20383;-83
2022/01/21 07:04:35;;;;;;;;;;;;;;;-1.73;76.19;100834.91;4948742;29;20409;-83
2022/01/21 07:07:01;;;;;;;;;;;;;;;-1.69;76.65;100844.78;4951014;29;19922;-83
2022/01/21 07:09:27;;;;;;;;;;;;;;;-1.62;73.39;100855.13;4952997;29;19945;-83
2022/01/21 07:11:52;;;;;;;;;;;;;;;-1.58;73.80;100847.91;4953444;28;20477;-83
2022/01/21 07:14:18;;;;;;;;;;;;;;;-1.57;72.19;100865.78;4953501;29;20297;-83
2022/01/21 07:16:43;;;;;;;;;;;;;;;-1.53;73.00;100851.19;4954036;29;19926;-84
2022/01/21 07:19:09;;;;;;;;;;;;;;;-1.53;71.63;100869.44;4969121;28;19925;-83
2022/01/21 07:21:34;;;;;;;;;;;;;;;-1.46;72.07;100866.97;4953869;29;19925;-83
2022/01/21 07:23:59;;;;;;;;;;;;;;;-1.42;71.62;100873.34;4936474;29;19919;-83
2022/01/21 07:26:26;;;;;;;;;;;;;;;-1.42;72.37;100865.97;4954368;29;20393;-83
2022/01/21 07:28:51;;;;;;;;;;;;;;;-1.44;71.29;100862.78;4954155;28;19938;-83
2022/01/21 07:31:17;;;;;;;;;;;;;;;-1.42;72.34;100878.78;4969018;28;20374;-83
2022/01/21 07:33:42;;;;;;;;;;;;;;;-1.41;73.49;100874.91;4953796;29;19946;-83
2022/01/21 07:36:08;;;;;;;;;;;;;;;-1.44;72.19;100886.47;4954077;28;19928;-83
2022/01/21 07:38:33;;;;;;;;;;;;;;;-1.39;73.07;100878.09;4953728;29;20402;-83
2022/01/21 07:40:58;;;;;;;;;;;;;;;-1.34;71.47;100886.06;4954001;29;19914;-83
2022/01/21 07:43:24;;;;;;;;;;;;;;;-1.32;72.63;100888.44;4953674;28;19925;-83
2022/01/21 07:45:49;;;;;;;;;;;;;;;-1.31;73.29;100893.53;4953710;29;19928;-83
2022/01/21 07:48:15;;;;;;;;;;;;;;;-1.28;72.65;100900.22;4952254;29;19920;-83
2022/01/21 07:50:40;;;;;;;;;;;;;;;-1.24;72.22;100893.78;4953721;29;19919;-83
2022/01/21 07:53:05;;;;;;;;;;;;;;;-1.23;72.46;100895.38;4953503;29;20025;-83
2022/01/21 07:55:31;;;;;;;;;;;;;;;-1.24;72.08;100901.94;4952431;29;19925;-83
2022/01/21 07:57:56;;;;;;;;;;;;;;;-1.22;71.65;100907.06;4953663;29;19914;-83
2022/01/21 08:00:22;;;;;;;;;;;;;;;-1.19;72.83;100915.34;4953702;29;19977;-83
2022/01/21 08:02:47;;;;;;;;;;;;;;;-1.15;72.66;100908.09;4953693;29;20373;-83
2022/01/21 08:05:13;;;;;;;;;;;;;;;-1.13;72.17;100905.81;4953446;29;19918;-83
2022/01/21 08:07:38;;;;;;;;;;;;;;;-1.05;72.90;100907.66;4953555;29;19922;-83
2022/01/21 08:10:04;;;;;;;;;;;;;;;-1.02;72.00;100915.16;4953463;29;19918;-83
2022/01/21 08:12:29;;;;;;;;;;;;;;;-1.00;71.52;100918.34;4953523;29;19918;-83
2022/01/21 08:14:55;;;;;;;;;;;;;;;-0.98;71.09;100921.53;4953444;29;19922;-83
2022/01/21 08:17:20;;;;;;;;;;;;;;;-0.88;70.98;100927.66;4953612;29;20267;-83
2022/01/21 08:19:46;;;;;;;;;;;;;;;-0.88;71.39;100927.66;4953032;29;19974;-83
2022/01/21 08:22:11;;;;;;;;;;;;;;;-0.82;71.49;100931.75;4953697;29;19914;-83
2022/01/21 08:24:36;;;;;;;;;;;;;;;-0.82;70.49;100939.94;4953224;29;20398;-83
2022/01/21 08:27:02;;;;;;;;;;;;;;;-0.74;71.96;100934.38;4953436;29;20354;-83
2022/01/21 08:29:27;;;;;;;;;;;;;;;-0.67;70.07;100940.06;4952167;29;19918;-83
2022/01/21 08:31:54;;;;;;;;;;;;;;;-0.63;70.59;100942.88;4953122;29;19921;-83
2022/01/21 08:34:19;;;;;;;;;;;;;;;-0.60;70.29;100953.09;4953171;29;19918;-83
2022/01/21 08:36:46;;;;;;;;;;;;;;;-0.51;69.95;100940.16;4956257;28;19917;-83
2022/01/21 08:39:13;;;;;;;;;;;;;;;-0.49;69.74;100949.63;4957194;29;19973;-83
2022/01/21 08:41:38;;;;;;;;;;;;;;;-0.40;69.58;100952.19;4957176;29;20414;-83
2022/01/21 08:44:04;;;;;;;;;;;;;;;-0.37;69.06;100946.09;4955638;29;20008;-84
2022/01/21 08:46:29;;;;;;;;;;;;;;;-0.22;68.62;100947.31;4957257;29;19969;-83
2022/01/21 08:48:55;;;;;;;;;;;;;;;-0.28;68.18;100938.56;4955403;29;19925;-84
2022/01/21 08:51:36;;;;;;;;;;;;;;;-0.26;68.31;100949.94;4957168;29;20298;-83
2022/01/21 08:54:02;;;;;;;;;;;;;;;-0.13;69.85;100951.53;4955601;29;19925;-83
2022/01/21 08:56:27;;;;;;;;;;;;;;;-0.23;68.51;100957.44;4957053;29;20322;-83
2022/01/21 08:58:53;;;;;;;;;;;;;;;-0.18;66.99;100949.03;4956500;29;19929;-83
2022/01/21 09:01:18;;;;;;;;;;;;;;;-0.16;68.13;100952.19;4956883;29;19915;-83
2022/01/21 09:03:44;;;;;;;;;;;;;;;-0.18;66.83;100956.41;4956464;29;19926;-83
2022/01/21 09:06:11;;;;;;;;;;;;;;;-0.12;66.55;100966.72;4956787;29;19914;-84
2022/01/21 09:08:40;;;;;;;;;;;;;;;-0.06;67.81;100962.63;4956186;29;19918;-83
2022/01/21 09:11:06;;;;;;;;;;;;;;;-0.09;65.53;100970.72;4956782;29;19919;-83
2022/01/21 09:13:38;;;;;;;;;;;;;;;-0.14;64.28;100965.50;4955345;29;19919;-83
2022/01/21 09:16:04;;;;;;;;;;;;;;;-0.11;64.39;100972.97;4956381;29;19918;-83
2022/01/21 09:18:53;;;;;;;;;;;;;;;-0.04;66.36;100973.22;4956474;29;20008;-83
2022/01/21 09:21:19;;;;;;;;;;;;;;;0.01;64.44;100948.41;4956453;28;19922;-83
2022/01/21 09:23:47;;;;;;;;;;;;;;;0.09;62.02;100958.41;4956129;29;20298;-83
2022/01/21 09:26:13;;;;;;;;;;;;;;;0.14;63.84;100960.09;4956444;29;20401;-83
2022/01/21 09:28:38;;;;;;;;;;;;;;;0.06;61.51;100964.56;4954832;29;19969;-83
2022/01/21 09:31:04;;;;;;;;;;;;;;;0.05;60.79;100967.63;4956287;29;19918;-83
2022/01/21 09:33:29;;;;;;;;;;;;;;;0.09;62.31;100954.88;4956210;29;19915;-83
2022/01/21 09:35:54;;;;;;;;;;;;;;;0.13;61.49;100959.31;4954897;29;19925;-83
2022/01/21 09:38:20;;;;;;;;;;;;;;;0.15;60.44;100967.16;4956150;29;19969;-83
2022/01/21 09:40:46;;;;;;;;;;;;;;;0.11;60.33;100960.78;4955872;29;19938;-83
2022/01/21 09:43:12;;;;;;;;;;;;;;;0.19;59.80;100957.16;4954995;29;19915;-83
2022/01/21 09:45:38;;;;;;;;;;;;;;;0.19;59.25;100948.94;4954596;29;19928;-83
2022/01/21 09:48:06;;;;;;;;;;;;;;;0.29;60.42;100952.00;4966639;28;19945;-83
2022/01/21 09:50:32;;;;;;;;;;;;;;;0.37;60.20;100942.88;4974953;28;19918;-83
2022/01/21 09:52:58;;;;;;;;;;;;;;;0.44;59.97;100947.75;4975089;28;20370;-83
2022/01/21 09:55:23;;;;;;;;;;;;;;;0.43;58.90;100946.94;4975158;28;19968;-83
2022/01/21 09:57:50;;;;;;;;;;;;;;;0.39;59.69;100939.81;4957744;28;19929;-83
2022/01/21 10:00:16;;;;;;;;;;;;;;;0.28;57.91;100944.16;4975005;28;20385;-83
2022/01/21 10:02:42;;;;;;;;;;;;;;;0.23;57.99;100931.56;4974807;28;19918;-83
2022/01/21 10:05:08;;;;;;;;;;;;;;;0.28;58.64;100922.34;4974927;28;19941;-83
2022/01/21 10:07:34;;;;;;;;;;;;;;;0.31;58.65;100943.47;4957797;28;19922;-83
2022/01/21 10:10:06;;;;;;;;;;;;;;;0.33;59.02;100941.97;4957529;28;19914;-83
2022/01/21 10:12:31;;;;;;;;;;;;;;;0.40;59.32;100938.66;4958810;28;19925;-83
2022/01/21 10:14:57;;;;;;;;;;;;;;;0.50;57.58;100938.16;4957179;28;19914;-83
2022/01/21 10:17:22;;;;;;;;;;;;;;;0.48;55.32;100943.19;4957520;28;19921;-83
2022/01/21 10:19:51;;;;;;;;;;;;;;;0.46;56.33;100945.44;4974560;28;19921;-83
2022/01/21 10:22:19;;;;;;;;;;;;;;;0.46;58.07;100942.72;4974798;28;20381;-83
2022/01/21 10:24:54;;;;;;;;;;;;;;;0.49;58.85;100944.75;4974439;28;19937;-83
2022/01/21 10:27:26;;;;;;;;;;;;;;;0.50;56.58;100946.34;4957321;28;19918;-83
2022/01/21 10:29:52;;;;;;;;;;;;;;;0.47;56.50;100947.03;4974318;28;19924;-83
2022/01/21 10:32:31;;;;;;;;;;;;;;;0.51;58.23;100952.59;4957203;28;20000;-83
2022/01/21 10:34:56;;;;;;;;;;;;;;;0.54;56.92;100952.69;4974165;28;19956;-83
2022/01/21 10:37:26;;;;;;;;;;;;;;;0.54;56.30;100952.69;4957293;28;20313;-84
2022/01/21 10:39:54;;;;;;;;;;;;;;;0.53;56.84;100947.59;4974049;28;19957;-84
2022/01/21 10:42:23;;;;;;;;;;;;;;;0.53;56.50;100945.66;4974389;28;19914;-84
2022/01/21 10:44:49;;;;;;;;;;;;;;;0.50;57.58;100943.63;4956736;28;19921;-83
2022/01/21 10:47:15;;;;;;;;;;;;;;;0.50;57.66;100946.34;4974081;28;20028;-84
2022/01/21 10:49:42;;;;;;;;;;;;;;;0.58;58.40;100942.69;4956721;28;20029;-84
2022/01/21 10:52:11;;;;;;;;;;;;;;;0.54;55.84;100941.78;4974174;28;19925;-83
2022/01/21 10:54:47;;;;;;;;;;;;;;;0.53;56.40;100934.72;4957037;28;20495;-83
2022/01/21 10:57:14;;;;;;;;;;;;;;;0.53;54.66;100925.78;4957230;28;19959;-83
2022/01/21 10:59:57;;;;;;;;;;;;;;;0.56;57.14;100922.34;4972799;28;19953;-84
2022/01/21 11:02:29;;;;;;;;;;;;;;;0.59;56.51;100916.97;4973930;28;19926;-84
2022/01/21 11:04:56;;;;;;;;;;;;;;;0.64;57.35;100905.00;4973632;28;20021;-83
2022/01/21 11:07:41;;;;;;;;;;;;;;;0.72;55.94;100904.84;4973664;28;19918;-84
2022/01/21 11:10:06;;;;;;;;;;;;;;;0.80;55.67;100914.81;4973812;28;19918;-84
2022/01/21 11:12:32;;;;;;;;;;;;;;;0.87;57.05;100895.88;4973820;28;19914;-84
2022/01/21 11:14:59;;;;;;;;;;;;;;;0.90;55.80;100917.03;4973390;28;20481;-83
2022/01/21 11:17:24;;;;;;;;;;;;;;;0.96;55.09;100903.13;4973696;28;19914;-83
2022/01/21 11:20:16;;;;;;;;;;;;;;;1.12;54.76;100896.50;4956027;28;19924;-83
2022/01/21 11:22:55;;;;;;;;;;;;;;;1.30;54.76;100886.00;4957164;28;19918;-83
2022/01/21 11:25:41;;;;;;;;;;;;;;;1.51;54.90;100891.97;4973513;28;19918;-83
2022/01/21 11:28:06;;;;;;;;;;;;;;;1.74;54.18;100872.97;4973411;28;19933;-83
2022/01/21 11:30:32;;;;;;;;;;;;;;;1.78;51.37;100874.63;4955994;28;19918;-84
2022/01/21 11:32:57;;;;;;;;;;;;;;;1.86;51.51;100876.38;4973273;28;20004;-84
2022/01/21 11:35:23;;;;;;;;;;;;;;;2.08;53.04;100882.28;4973330;28;19918;-84
2022/01/21 11:37:48;;;;;;;;;;;;;;;2.12;50.40;100864.00;4973260;28;19928;-84
2022/01/21 11:40:13;;;;;;;;;;;;;;;2.05;50.07;100866.59;4955919;28;19989;-84
2022/01/21 11:42:39;;;;;;;;;;;;;;;2.05;49.42;100867.41;4955970;28;20293;-84
2022/01/21 11:45:19;;;;;;;;;;;;;;;2.09;50.19;100865.53;4972828;28;19918;-84
2022/01/21 11:48:12;;;;;;;;;;;;;;;2.31;50.48;100856.56;4972613;28;20011;-84
2022/01/21 11:50:36;;;;;;;;;;;;;;;2.26;48.37;100862.38;4959059;28;19954;-84
2022/01/21 11:53:01;;;;;;;;;;;;;;;2.28;48.88;100862.00;4973079;28;20561;-84
2022/01/21 11:55:33;;;;;;;;;;;;;;;2.15;48.14;100844.13;4955529;28;20369;-84
2022/01/21 11:58:17;;;;;;;;;;;;;;;2.08;48.90;100849.47;4972867;28;20270;-84
2022/01/21 12:00:43;;;;;;;;;;;;;;;2.07;48.86;100847.88;4972645;28;19914;-83
2022/01/21 12:03:09;;;;;;;;;;;;;;;2.06;50.00;100854.50;4955050;28;19918;-83
2022/01/21 12:05:34;;;;;;;;;;;;;;;2.14;46.96;100853.50;4954535;28;19918;-83
2022/01/21 12:08:04;;;;;;;;;;;;;;;2.35;45.97;100848.44;4954112;28;20374;-84
2022/01/21 12:10:47;;;;;;;;;;;;;;;2.45;46.51;100847.84;4971472;28;19957;-84
2022/01/21 12:13:16;;;;;;;;;;;;;;;2.67;47.68;100833.38;4970508;28;19922;-83
2022/01/21 12:20:43;;;;;;;;;;;;;;;2.75;43.27;100843.31;4970601;28;19952;-83
2022/01/21 12:23:09;;;;;;;;;;;;;;;2.76;42.63;100839.41;4972526;28;19969;-83
2022/01/21 12:25:35;;;;;;;;;;;;;;;3.02;43.26;100837.91;4954721;28;19977;-84
2022/01/21 12:28:13;;;;;;;;;;;;;;;3.21;43.25;100835.06;4954763;28;20421;-83
2022/01/21 12:30:39;;;;;;;;;;;;;;;3.29;43.45;100820.31;4954669;28;19922;-84
2022/01/21 12:33:41;;;;;;;;;;;;;;;3.15;43.88;100811.88;4957572;28;19917;-82
2022/01/21 12:36:10;;;;;;;;;;;;;;;3.10;41.90;100814.94;4954877;28;20278;-83
2022/01/21 12:41:04;;;;;;;;;;;;;;;2.75;42.22;100810.44;4971675;28;20421;-83
2022/01/21 12:43:40;;;;;;;;;;;;;;;2.80;42.18;100814.81;4954985;28;19914;-83
2022/01/21 12:46:06;;;;;;;;;;;;;;;2.79;42.23;100797.59;4954234;28;19914;-83
2022/01/21 12:48:34;;;;;;;;;;;;;;;3.09;42.85;100797.69;4971805;28;19918;-83
2022/01/21 12:56:44;;;;;;;;;;;;;;;2.69;42.05;100797.41;4957318;28;19924;-84
2022/01/21 12:59:16;;;;;;;;;;;;;;;2.71;41.78;100801.38;4954398;28;19993;-84
2022/01/21 13:01:42;;;;;;;;;;;;;;;2.76;42.03;100781.88;4954453;28;19957;-83
2022/01/21 13:04:15;;;;;;;;;;;;;;;2.95;42.08;100785.72;4954034;28;19961;-83
2022/01/21 13:06:43;;;;;;;;;;;;;;;2.91;40.28;100780.19;4954294;28;20397;-83
2022/01/21 13:09:17;;;;;;;;;;;;;;;2.98;41.21;100777.56;4938905;28;19921;-83
2022/01/21 13:11:47;;;;;;;;;;;;;;;2.94;41.81;100775.91;4916848;29;19930;-84
2022/01/21 13:14:25;;;;;;;;;;;;;;;3.00;39.72;100780.69;4932563;28;19918;-84
2022/01/21 13:17:13;;;;;;;;;;;;;;;3.09;41.00;100788.66;4971592;28;20293;-84
2022/01/21 13:19:41;;;;;;;;;;;;;;;2.99;40.07;100778.34;4966143;28;19933;-82
2022/01/21 13:22:13;;;;;;;;;;;;;;;2.89;39.05;100792.66;4971805;28;20330;-82
2022/01/21 13:24:50;;;;;;;;;;;;;;;2.80;39.25;100781.94;4975072;28;19918;-83
2022/01/21 13:27:16;;;;;;;;;;;;;;;2.75;39.73;100780.31;4943137;29;20342;-83
2022/01/21 13:29:42;;;;;;;;;;;;;;;2.95;39.23;100778.31;4955868;29;19954;-83
2022/01/21 13:32:07;;;;;;;;;;;;;;;2.91;38.74;100784.88;4955663;29;20069;-83
2022/01/21 13:34:36;;;;;;;;;;;;;;;2.88;38.29;100774.63;4938471;29;19928;-82
2022/01/21 13:37:04;;;;;;;;;;;;;;;2.78;38.43;100789.75;4955491;28;19918;-83
2022/01/21 13:39:35;;;;;;;;;;;;;;;2.74;38.19;100776.00;4955760;29;19925;-83
2022/01/21 13:42:11;;;;;;;;;;;;;;;2.77;37.62;100786.22;4955433;29;19914;-84
2022/01/21 13:44:47;;;;;;;;;;;;;;;2.83;37.78;100782.00;4955625;29;20008;-85
2022/01/21 13:47:31;;;;;;;;;;;;;;;2.98;37.25;100787.72;4959833;28;20302;-84
2022/01/21 13:50:08;;;;;;;;;;;;;;;3.12;37.56;100782.44;4974473;28;19921;-84
2022/01/21 13:52:34;;;;;;;;;;;;;;;3.13;38.38;100784.03;4957448;28;19957;-84
2022/01/21 13:54:59;;;;;;;;;;;;;;;3.27;38.02;100790.53;4974314;28;19961;-84
2022/01/21 13:57:26;;;;;;;;;;;;;;;3.18;36.70;100797.44;4974694;28;19917;-85
2022/01/21 13:59:51;;;;;;;;;;;;;;;3.28;37.40;100797.59;4957113;28;19922;-84
2022/01/21 14:02:17;;;;;;;;;;;;;;;3.19;36.90;100788.06;4950750;28;19977;-84
2022/01/21 14:04:59;;;;;;;;;;;;;;;3.23;38.31;100784.22;4974369;28;19969;-82
2022/01/21 14:07:25;;;;;;;;;;;;;;;3.32;37.89;100792.16;4956954;28;20037;-84
2022/01/21 14:09:50;;;;;;;;;;;;;;;3.28;36.63;100783.09;4974147;28;19918;-84
2022/01/21 14:12:16;;;;;;;;;;;;;;;3.12;36.60;100776.97;4974378;28;19954;-84
2022/01/21 14:14:41;;;;;;;;;;;;;;;2.94;37.29;100778.66;4957110;28;19941;-84
2022/01/21 14:17:07;;;;;;;;;;;;;;;2.78;37.42;100774.13;4940852;28;19917;-83
2022/01/21 14:19:37;;;;;;;;;;;;;;;2.71;38.62;100768.50;4974273;28;19944;-82
2022/01/21 14:22:03;;;;;;;;;;;;;;;2.61;38.67;100769.13;4956798;28;20290;-84
2022/01/21 14:24:29;;;;;;;;;;;;;;;2.45;38.48;100771.19;4947002;29;19923;-83
2022/01/21 14:26:55;;;;;;;;;;;;;;;2.35;38.38;100766.28;4954324;29;20441;-84
2022/01/21 14:29:28;;;;;;;;;;;;;;;2.22;38.66;100764.91;4937293;29;19922;-84
2022/01/21 14:31:54;;;;;;;;;;;;;;;2.09;38.91;100766.22;4954721;29;19918;-83
2022/01/21 14:34:20;;;;;;;;;;;;;;;2.01;39.90;100767.22;4937461;29;19966;-83
2022/01/21 14:37:06;;;;;;;;;;;;;;;1.94;39.37;100758.88;4953552;29;19996;-83
2022/01/21 14:39:35;;;;;;;;;;;;;;;1.87;40.23;100757.59;4921055;29;19925;-81
2022/01/21 14:42:00;;;;;;;;;;;;;;;1.75;41.65;100760.47;4952723;28;19923;-82
2022/01/21 14:44:33;;;;;;;;;;;;;;;1.67;38.94;100758.75;4934504;29;20009;-83
2022/01/21 14:47:08;;;;;;;;;;;;;;;1.61;40.37;100765.66;4953742;28;20401;-82
2022/01/21 14:49:34;;;;;;;;;;;;;;;1.56;38.84;100757.72;4954428;28;19918;-82
2022/01/21 14:54:44;;;;;;;;;;;;;;;1.50;40.23;100750.94;4971642;28;20341;-82
2022/01/21 14:57:09;;;;;;;;;;;;;;;1.43;40.94;100753.53;4971449;28;19941;-82
2022/01/21 14:59:37;;;;;;;;;;;;;;;1.39;39.11;100753.47;4972006;28;20398;-82
2022/01/21 15:02:04;;;;;;;;;;;;;;;1.36;40.25;100747.94;4956549;28;20410;-81
2022/01/21 15:04:36;;;;;;;;;;;;;;;1.32;40.09;100749.78;4954061;29;19922;-81
2022/01/21 15:07:05;;;;;;;;;;;;;;;1.28;39.83;100748.91;4953823;29;19918;-81
2022/01/21 15:09:31;;;;;;;;;;;;;;;1.25;39.76;100747.72;4936730;29;19919;-82
2022/01/21 15:12:09;;;;;;;;;;;;;;;1.26;38.85;100746.53;4953814;29;19921;-81
2022/01/21 15:14:45;;;;;;;;;;;;;;;1.25;39.76;100755.09;4953898;29;19918;-81
2022/01/21 15:17:14;;;;;;;;;;;;;;;1.17;39.96;100754.16;4953554;29;20005;-82
2022/01/21 15:19:43;;;;;;;;;;;;;;;1.11;40.58;100762.97;4936632;29;20309;-81
2022/01/21 15:22:11;;;;;;;;;;;;;;;1.03;40.99;100763.97;4965767;28;19922;-81
2022/01/21 15:24:37;;;;;;;;;;;;;;;0.97;41.23;100758.00;4955633;28;19914;-81
2022/01/21 15:27:02;;;;;;;;;;;;;;;0.87;41.58;100753.06;4972329;28;19924;-80
2022/01/21 15:29:28;;;;;;;;;;;;;;;0.78;42.00;100755.97;4961079;28;20428;-80
2022/01/21 15:31:53;;;;;;;;;;;;;;;0.69;42.61;100757.31;4968282;28;19925;-80
2022/01/21 15:34:18;;;;;;;;;;;;;;;0.60;42.79;100754.75;4956656;28;20009;-80
2022/01/21 15:36:44;;;;;;;;;;;;;;;0.48;43.35;100763.03;4953454;29;19922;-80
2022/01/21 15:39:10;;;;;;;;;;;;;;;0.44;42.94;100752.03;4953421;29;19914;-80
2022/01/21 15:41:36;;;;;;;;;;;;;;;0.37;44.15;100735.44;4960982;28;19929;-81
2022/01/21 15:44:01;;;;;;;;;;;;;;;0.21;44.11;100744.75;4953765;28;19961;-80
2022/01/21 15:46:27;;;;;;;;;;;;;;;0.08;44.68;100743.25;4951001;28;19925;-80
2022/01/21 15:48:52;;;;;;;;;;;;;;;-0.05;45.10;100748.78;4951454;29;19918;-80
2022/01/21 15:51:18;;;;;;;;;;;;;;;-0.14;45.58;100745.41;4961561;28;19977;-80
2022/01/21 15:53:43;;;;;;;;;;;;;;;-0.12;44.47;100740.38;4970992;28;19921;-80
2022/01/21 15:56:09;;;;;;;;;;;;;;;-0.14;44.73;100764.50;4962858;28;19921;-80
2022/01/21 15:58:34;;;;;;;;;;;;;;;-0.18;44.65;100777.22;4960491;28;19954;-81
2022/01/21 16:01:00;;;;;;;;;;;;;;;-0.19;44.14;100783.03;4951550;29;19934;-81
2022/01/21 16:03:32;;;;;;;;;;;;;;;-0.28;45.15;100776.94;4964970;28;19964;-80
2022/01/21 16:05:57;;;;;;;;;;;;;;;-0.30;45.26;100766.38;4970874;28;19925;-80
2022/01/21 16:08:23;;;;;;;;;;;;;;;-0.28;45.42;100785.88;4955019;28;19918;-80
2022/01/21 16:10:48;;;;;;;;;;;;;;;-0.26;45.39;100777.38;4972350;28;20429;-81
2022/01/21 16:13:14;;;;;;;;;;;;;;;-0.21;45.70;100779.88;4972247;28;19972;-81
2022/01/21 16:15:39;;;;;;;;;;;;;;;-0.20;46.37;100773.28;4971916;28;19918;-81
2022/01/21 16:18:05;;;;;;;;;;;;;;;-0.18;46.11;100768.25;4970530;28;19914;-81
2022/01/21 16:20:30;;;;;;;;;;;;;;;-0.19;46.80;100756.56;4954043;28;19922;-81
2022/01/21 16:22:55;;;;;;;;;;;;;;;-0.19;45.23;100762.00;4972041;28;19960;-80
2022/01/21 16:25:21;;;;;;;;;;;;;;;-0.13;45.15;100754.38;4972171;28;19964;-81
2022/01/21 16:27:47;;;;;;;;;;;;;;;-0.07;44.94;100761.97;4972158;28;19972;-81
2022/01/21 16:30:13;;;;;;;;;;;;;;;-0.04;45.09;100750.34;4954947;28;19967;-80
2022/01/21 16:32:38;;;;;;;;;;;;;;;-0.01;45.26;100754.31;4939092;28;20554;-81
2022/01/21 16:35:04;;;;;;;;;;;;;;;0.01;45.26;100771.13;4971777;28;20422;-81
2022/01/21 16:37:30;;;;;;;;;;;;;;;0.00;46.00;100764.88;4972234;28;19913;-81
2022/01/21 16:39:58;;;;;;;;;;;;;;;0.07;48.28;100768.94;4966452;28;19922;-80
2022/01/21 16:42:23;;;;;;;;;;;;;;;0.09;46.09;100766.66;4948391;28;19922;-81
2022/01/21 16:44:48;;;;;;;;;;;;;;;0.07;46.46;100777.13;4967456;28;19928;-81
2022/01/21 16:47:14;;;;;;;;;;;;;;;0.05;46.57;100771.22;4965522;28;20001;-81
2022/01/21 16:49:39;;;;;;;;;;;;;;;0.02;46.42;100761.81;4963370;28;19918;-81
2022/01/21 16:52:05;;;;;;;;;;;;;;;0.03;46.75;100759.88;4928934;29;19919;-81
2022/01/21 16:54:30;;;;;;;;;;;;;;;-0.06;46.68;100738.22;4951908;29;19948;-80
2022/01/21 16:56:56;;;;;;;;;;;;;;;-0.03;47.61;100760.13;4946263;28;19922;-80
2022/01/21 16:59:22;;;;;;;;;;;;;;;-0.02;48.17;100750.81;4939161;29;20500;-81